모두
Ngukurr Airport (Roper River, Northern Territory) RPM 기상
|
Roper River, Northern Territory (RPM / YNGU)
맑은 하늘
가벼운 바람 |
|
28 °C |
RPM 터미널 지역 예측
| Here is the undecoded forecast: 2026/05/04 20:01 YNGU 042001Z 0420/0508 VRB03KT CAVOK FM042200 10010KT CAVOK PROB30 0420/0421 0500 FG RMK T 22 25 32 33 Q 1012 1014 1014 1010 |
최근 RPM METAR 이력
| Date | Time (ACST) | Flight Rules | Wind Dir. | Speed | Type | Height AGL (ft) | Visibility | Temp (°C) | Temp (°F) | Dew Point (°C) | Dew Point (°F) | Rel. Humid. | Pressure | Density Altitude | Remarks |
|---|---|---|---|---|---|---|---|---|---|---|---|---|---|---|---|
| 05-5월 | 09:30 | n/a | 110° | 7 kt | Missing | 28° | 82° | 19° | 66° | 58% | 1014 mb | 1,582 ft | |||
| 05-5월 | 08:30 | n/a | 150° | 4 kt | Missing | 25° | 77° | 20° | 68° | 74% | 1014 mb | 1,222 ft | |||
| 05-5월 | 07:30 | n/a | 130° | 2 kt | Missing | 23° | 73° | 20° | 68° | 83% | 1013 mb | 1,011 ft | |||
| 05-5월 | 06:30 | n/a | Calm | Missing | 20° | 68° | 19° | 66° | 94% | 1013 mb | 651 ft | ||||
| 05-5월 | 05:30 | n/a | Calm | Missing | 21° | 69° | 20° | 68° | 94% | 1012 mb | 801 ft | ||||
| 05-5월 | 04:30 | n/a | 150° | 2 kt | Missing | 21° | 69° | 20° | 68° | 94% | 1012 mb | 801 ft | |||
| 05-5월 | 03:30 | n/a | 150° | 1 kt | Missing | 22° | 71° | 22° | 71° | 100% | 1012 mb | 921 ft | |||
| 05-5월 | 02:30 | n/a | Calm | Missing | 23° | 73° | 22° | 71° | 94% | 1012 mb | 1,041 ft | ||||
| 05-5월 | 01:30 | n/a | 160° | 1 kt | Missing | 23° | 73° | 22° | 71° | 94% | 1013 mb | 1,011 ft | |||
| 05-5월 | 00:30 | n/a | 170° | 2 kt | Missing | 23° | 73° | 23° | 73° | 100% | 1013 mb | 1,011 ft | |||
| 04-5월 | 23:30 | n/a | 190° | 3 kt | Missing | 23° | 73° | 22° | 71° | 94% | 1014 mb | 982 ft | |||
| 04-5월 | 22:30 | n/a | Calm | Missing | 23° | 73° | 22° | 71° | 94% | 1013 mb | 1,011 ft | ||||
| 04-5월 | 21:30 | n/a | 170° | 1 kt | Missing | 23° | 73° | 22° | 71° | 94% | 1014 mb | 982 ft | |||
| 04-5월 | 20:30 | n/a | 120° | 2 kt | Missing | 24° | 75° | 22° | 71° | 89% | 1013 mb | 1,131 ft | |||
| 04-5월 | 19:30 | n/a | Calm | Missing | 25° | 77° | 22° | 71° | 83% | 1012 mb | 1,281 ft | ||||
| 04-5월 | 18:30 | n/a | 80° | 2 kt | Missing | 28° | 82° | 20° | 68° | 62% | 1012 mb | 1,641 ft | |||
| 04-5월 | 17:30 | n/a | 80° | 7 kt | Missing | 31° | 87° | 19° | 66° | 49% | 1011 mb | 2,030 ft | |||
| 04-5월 | 16:30 | n/a | 70° | 9 kt | Missing | 32° | 89° | 18° | 64° | 43% | 1011 mb | 2,150 ft | |||
| 04-5월 | 15:30 | n/a | 80° | 8 kt | Missing | 34° | 93° | 20° | 68° | 44% | 1010 mb | 2,420 ft | |||
| 04-5월 | 14:30 | n/a | 70° | 9 kt | Missing | 34° | 93° | 20° | 68° | 44% | 1011 mb | 2,390 ft | |||
| 04-5월 | 13:30 | n/a | 80° | 9 kt | Missing | 33° | 91° | 20° | 68° | 46% | 1011 mb | 2,270 ft | |||
| 04-5월 | 12:30 | n/a | 120° | 7 kt | Missing | 33° | 91° | 20° | 68° | 46% | 1012 mb | 2,241 ft | |||
| 04-5월 | 11:30 | n/a | 90° | 6 kt | Missing | 32° | 89° | 21° | 69° | 52% | 1013 mb | 2,091 ft | |||
| 04-5월 | 10:30 | n/a | 150° | 3 kt | Missing | 29° | 84° | 24° | 75° | 74% | 1014 mb | 1,702 ft |
로그인
| 귀하의 브라우저는 지원되지 않습니다.. 브라우저를 업그레이드하세요 |
